Yutaka Maru No.2 — JD4265 — position and weather

sailwx.info

Track history (hours):
 
Tides and Currents Weather Stations Pressure Air Temp Water Temp Dewpoint Dewpoint Depression Visibility Wind Speed Wind Dir Waves Ship Positions

Yutaka Maru No.2

Last reported at 2017-Nov-12 23:23 UTC. Time now 2017-Nov-20 15:28 UTC.
Position N 34°31' E 135°24'.

Length 76 m; draft 4.2 m.

Type: Cargo ship. MMSI: 431010033.

Date/timePositionNaut miles runAvg speedWind from/ knotsBaromVisibWave heightAir tempDewpointWater temp
2017-Nov-12 23:23N 34°31' E 135°24'0 1.0
2017-Nov-12 23:00N 34°31' E 135°23'1 1.9
2017-Nov-12 22:29N 34°31' E 135°24'0 0.0
2017-Nov-11 21:45N 34°31' E 135°24'0 0.2
2017-Nov-11 21:27N 34°31' E 135°24'4 8.5
2017-Nov-11 20:57N 34°31' E 135°19'511.7
2017-Nov-11 20:31N 34°28' E 135°14'611.4
2017-Nov-11 20:00N 34°24' E 135°09'611.3
2017-Nov-11 19:30N 34°19' E 135°05'611.0
2017-Nov-11 19:00N 34°14' E 135°03'611.4
2017-Nov-11 18:30N 34°08' E 135°02'226 8.5
2017-Nov-10 15:46N 35°02' E 139°29'310.3
2017-Nov-10 15:30N 35°03' E 139°32'510.0
2017-Nov-10 15:00N 35°05' E 139°38'510.1
2017-Nov-10 14:30N 35°08' E 139°43'611.7
2017-Nov-10 14:00N 35°13' E 139°47'612.0
2017-Nov-10 13:30N 35°18' E 139°44'611.3
2017-Nov-10 13:00N 35°24' E 139°43'611.4
2017-Nov-10 12:30N 35°28' E 139°48'  
2017-Nov-07 18:10N 35°30' E 139°53'212.1
2017-Nov-07 17:58N 35°28' E 139°51'612.2
2017-Nov-07 17:30N 35°24' E 139°46'611.8
2017-Nov-07 17:00N 35°18' E 139°45'611.0
2017-Nov-07 16:30N 35°13' E 139°47'611.1
2017-Nov-07 15:59N 35°08' E 139°44'  
2017-Nov-04 09:50N 34°36' E 134°56'514.2
2017-Nov-04 09:31N 34°37' E 135°01'713.3
2017-Nov-04 09:00N 34°36' E 135°09'612.3
2017-Nov-04 08:30N 34°37' E 135°16'612.7
2017-Nov-04 08:00N 34°39' E 135°24'3 5.8
2017-Nov-04 07:30N 34°38' E 135°28'  
Track history (hours):
 
Tides and Currents Weather Stations Pressure Air Temp Water Temp Dewpoint Dewpoint Depression Visibility Wind Speed Wind Dir Waves Ship Positions

Yutaka Maru No.2

Last reported at 2017-Nov-12 23:23 UTC. Time now 2017-Nov-20 15:28 UTC.
Position N 34°31' E 135°24'.

Length 76 m; draft 4.2 m.

Type: Cargo ship. MMSI: 431010033.

Date/timePositionNaut miles runAvg speedWind from/ knotsBaromVisibWave heightAir tempDewpointWater temp
2017-Nov-12 23:23N 34°31' E 135°24'0 1.0
2017-Nov-12 23:00N 34°31' E 135°23'1 1.9
2017-Nov-12 22:29N 34°31' E 135°24'0 0.0
2017-Nov-11 21:45N 34°31' E 135°24'0 0.2
2017-Nov-11 21:27N 34°31' E 135°24'4 8.5
2017-Nov-11 20:57N 34°31' E 135°19'511.7
2017-Nov-11 20:31N 34°28' E 135°14'611.4
2017-Nov-11 20:00N 34°24' E 135°09'611.3
2017-Nov-11 19:30N 34°19' E 135°05'611.0
2017-Nov-11 19:00N 34°14' E 135°03'611.4
2017-Nov-11 18:30N 34°08' E 135°02'226 8.5
2017-Nov-10 15:46N 35°02' E 139°29'310.3
2017-Nov-10 15:30N 35°03' E 139°32'510.0
2017-Nov-10 15:00N 35°05' E 139°38'510.1
2017-Nov-10 14:30N 35°08' E 139°43'611.7
2017-Nov-10 14:00N 35°13' E 139°47'612.0
2017-Nov-10 13:30N 35°18' E 139°44'611.3
2017-Nov-10 13:00N 35°24' E 139°43'611.4
2017-Nov-10 12:30N 35°28' E 139°48'  
2017-Nov-07 18:10N 35°30' E 139°53'212.1
2017-Nov-07 17:58N 35°28' E 139°51'612.2
2017-Nov-07 17:30N 35°24' E 139°46'611.8
2017-Nov-07 17:00N 35°18' E 139°45'611.0
2017-Nov-07 16:30N 35°13' E 139°47'611.1
2017-Nov-07 15:59N 35°08' E 139°44'  
2017-Nov-04 09:50N 34°36' E 134°56'514.2
2017-Nov-04 09:31N 34°37' E 135°01'713.3
2017-Nov-04 09:00N 34°36' E 135°09'612.3
2017-Nov-04 08:30N 34°37' E 135°16'612.7
2017-Nov-04 08:00N 34°39' E 135°24'3 5.8
2017-Nov-04 07:30N 34°38' E 135°28'  

Dump ship's entire track history